Accueil
METAR-TAF:

METAR-TAF

Aéroports :

Solenzara, France

Base aérienne 126 Solenzara

latitude: 41-55N, longitude: 009-24E, altitude: 8 m

Observation

Le bulletin a été fait il y a 23 minutes, à 09:30 UTC
Vent 7 kt de est, variant entre est/nord-est et sud-est
Température 28°C
Humidité 58%
Pression 1017 hPa
Visibilité 10 km ou plus
pas de nuages en-dessous de 1500 mètres et pas de cumulonimbus.

METAR: LFKS 170930Z AUTO 10007KT 070V140 CAVOK 28/19 Q1017

Heure: 11:53 (09:53 UTC)

Prévision

Le bulletin a été fait il y a 1 heure et 53 minutes, à 08:00 UTC
Prévision valable du 17 à 09 UTC au 18 à 09 UTC
Vent 6 kt de est/sud-est
Visibilité 10 km ou plus
pas de nuages en-dessous de 1500 mètres et pas de cumulonimbus.
Evoluant progressivement
du 17 à 18 UTC au 17 à 20 UTC
Vent 6 kt de ouest

TAF: LFKS 170800Z 1709/1809 11006KT CAVOK BECMG 1718/1720 27006KT

Observations et prévisions météorologiques de plus de 4000 aéroports (messages METAR et TAF).

Les stations disponibles sont représentées par des disques jaunes et rouges sur la carte.

Passer la souris dessus pour voir le nom de la station.

Cliquer dessus pour voir les observations et prévisions météorologiques.

Pour changer de carte: cliquez sur les boutons verts avec une croix noire pour zoomer, sur le bouton vert avec un tiret pour effectuer un zoom arrière, ou sur les flèches vertes pour les cartes adjacentes.


METAR-TAF: